Julian Carroll Airport
KJKL : now visible

Airfield :











YOU CAN JOIN US ON...

 
LOGIN :

Register | Disclaimer

   EN    FR    IT 

 









Legend :    VFR   Marginal VFR   IFR   Intensive IFR   Very Intensive IFR
Visi :
Ceiling :
>= 8 km
>= 3000ft
5 to 8 km
1000 to 3000 ft
1500m to 5 km
500 to 1000 ft
800 to 1500m
200 to 500 ft
< 800m
< 200 ft
Symbols :   Thunderstorms  Fog  Heavy snow  Heavy precipitations  Wind > 20 kt






- Airport Elevation : 1381 ft


KJKL - Julian Carroll

CURRENT METAR :
  • 202053Z AUTO 00000KT 10SM FEW021 SCT028 26/20 A3010 RMK AO2 SLP179 T02610200 56008

EXPIRED METARs :
  • 201953Z AUTO 00000KT 10SM FEW100 26/20 A3011 RMK AO2 SLP180 T02560200
  • 201853Z AUTO 00000KT 10SM CLR 24/20 A3012 RMK AO2 SLP187 T02390200
  • 201753Z AUTO 00000KT 10SM CLR 23/20 A3013 RMK AO2 RAE07 SLP188 P0000 60031 T02330200 10233 20178 58007
  • 201707Z AUTO 00000KT 10SM FEW002 SCT032 BKN070 21/19 A3014 RMK AO2 LTG DSNT SE RAE07 P0000 T02060194
  • 201653Z AUTO 00000KT 6SM -RA BR FEW038 BKN070 OVC100 21/19 A3014 RMK AO2 SLP193 P0006 T02060189

TAF KJKL
Valid from the 20 at 20:00 until the 21 at 18:00 UTC


201937Z 2020/2118 VRB03KT P6SM VCTS SCT040CB
FM210600 VRB03KT 2SM BR SCT010
FM211400 VRB03KT P6SM BKN015
FM211600 VRB03KT P6SM BKN025
KZID FIR / North America



MET'MAP, your aeronautical weather chart ! - Copyright ORBIFLY December 2007 - Disclaimer

ORBIFLY MET'MAP TEAM :

Programming & Development : Alexandra Zaïnal
Original concept : Baudouin d'Aumeries
Technical & hardware support : Manuel Goepfert
Assistance : Marc-Olivier Méhu




SOURCES & CREDITS :

   NOAA       Earth
Advisory